Flight Track Log - Related Links

Times and Time Zones

All times are in EDT time to prevent confusion due to time zone crossing. See the N1013 flight status page for this flight to view local times or setup timezone preferences in your user account.

Time Position Orientation Groundspeed Altitude Reporting Facility
EDT Latitude Longitude Course Direction KTS MPH feet Rate Location/Type
Sat 09:24:42 PM 35.2228 -97.4822 222° Southwest 157 181 2,400  Level Fort Worth Center
Sat 09:25:58 PM 35.1683 -97.5431 222° Southwest 216 249 6,600 3,441 Climbing Fort Worth Center
Sat 09:26:58 PM 35.1161 -97.6064 225° Southwest 244 281 10,200 3,273 Climbing Fort Worth Center
Sat 09:27:59 PM 35.0597 -97.6797 227° Southwest 281 323 13,200 3,050 Climbing Fort Worth Center
Sat 09:28:58 PM 34.9989 -97.7608 228° Southwest 308 354 16,300 3,000 Climbing Fort Worth Center
Sat 09:29:59 PM 34.9361 -97.8492 229° Southwest 333 383 19,200 2,750 Climbing Fort Worth Center
Sat 09:30:58 PM 34.8711 -97.9400 229° Southwest 346 398 21,800 2,200 Climbing Fort Worth Center
Sat 09:31:59 PM 34.7997 -98.0356 228° Southwest 371 427 23,600 1,650 Climbing Fort Worth Center
Sat 09:32:58 PM 34.7242 -98.1411 229° Southwest 398 458 25,100 1,600 Climbing Fort Worth Center
Sat 09:33:59 PM 34.6442 -98.2489 228° Southwest 418 481 26,800 1,686 Climbing Fort Worth Center
Sat 09:34:59 PM 34.5642 -98.3617 229° Southwest 437 503 28,500 1,714 Climbing Fort Worth Center
Sat 09:35:58 PM 34.4797 -98.4742 228° Southwest 448 516 30,200 1,412 Climbing Fort Worth Center
Sat 09:36:58 PM 34.3953 -98.5914 229° Southwest 455 524 31,300 1,041 Climbing Fort Worth Center
Sat 09:37:59 PM 34.3083 -98.7133 229° Southwest 460 529 32,300 1,000 Climbing Fort Worth Center
Sat 09:38:58 PM 34.2175 -98.8350 228° Southwest 477 549 33,300 850 Climbing Fort Worth Center
Sat 09:39:59 PM 34.1283 -98.9592 229° Southwest 483 556 34,000 350 Climbing Fort Worth Center
Sat 09:40:58 PM 34.0456 -99.0603 225° Southwest 482 555 34,000 555 Level Fort Worth Center
Sat 09:41:58 PM 33.9522 -99.1811 227° Southwest 482 555 35,100 1,250 Climbing Fort Worth Center
Sat 09:42:58 PM 33.8647 -99.3019 229° Southwest 488 562 36,500 1,400 Climbing Fort Worth Center
Sat 09:43:58 PM 33.7711 -99.4225 227° Southwest 488 562 37,900 1,438 Climbing Fort Worth Center
Sat 09:44:59 PM 33.6814 -99.5428 228° Southwest 488 562 39,400 1,438 Climbing Fort Worth Center
Sat 09:45:59 PM 33.5939 -99.6603 228° Southwest 488 562 40,800 1,350 Climbing Fort Worth Center
Sat 09:46:59 PM 33.5083 -99.7728 228° Southwest 483 556 42,100 1,109 Climbing Fort Worth Center
Sat 09:47:58 PM 33.4269 -99.8825 228° Southwest 466 536 43,000 454 Climbing Fort Worth Center
Sat 09:48:58 PM 33.3411 -99.9944 227° Southwest 460 529 43,000  Level Fort Worth Center
Sat 09:49:59 PM 33.2553 -100.1061 227° Southwest 460 529 43,000  Level Fort Worth Center
Sat 09:50:58 PM 33.1672 -100.2178 227° Southwest 460 529 43,000  Level Fort Worth Center
Sat 09:51:58 PM 33.0789 -100.3339 228° Southwest 465 535 43,000  Level Fort Worth Center
Sat 09:52:59 PM 32.9928 -100.4450 227° Southwest 465 535 43,000  Level Fort Worth Center
Sat 09:53:59 PM 32.9044 -100.5558 227° Southwest 465 535 43,000  Level Fort Worth Center
Sat 09:54:58 PM 32.8183 -100.6664 227° Southwest 465 535 43,000  Level Fort Worth Center
Sat 09:55:59 PM 32.7319 -100.7769 227° Southwest 465 535 43,000  Level Fort Worth Center
Sat 09:56:58 PM 32.6453 -100.8847 226° Southwest 465 535 43,000  Level Fort Worth Center
Sat 09:57:59 PM 32.5589 -100.9922 226° Southwest 465 535 43,000  Level Fort Worth Center
Sat 09:58:59 PM 32.4742 -101.1022 228° Southwest 465 535 43,000  Level Fort Worth Center
Sat 09:59:58 PM 32.3856 -101.2092 226° Southwest 460 529 43,000  Level Fort Worth Center
Sat 10:00:58 PM 32.3008 -101.3161 227° Southwest 460 529 43,000  Level Fort Worth Center
Sat 10:01:59 PM 32.2139 -101.4256 227° Southwest 460 529 43,000  Level Fort Worth Center
Sat 10:02:58 PM 32.1244 -101.5417 228° Southwest 460 529 43,000  Level Fort Worth Center
Sat 10:03:59 PM 32.0353 -101.6528 227° Southwest 460 529 43,000  Level Fort Worth Center
Sat 10:04:58 PM 31.9500 -101.7639 228° Southwest 460 529 43,000  Level Fort Worth Center
Sat 10:07:25 PM 31.7381 -102.0181 226° Southwest 455 524 43,000  Level Albuquerque Center
Sat 10:08:26 PM 31.6514 -102.1256 227° Southwest 456 525 43,000  Level Albuquerque Center
Sat 10:09:28 PM 31.5642 -102.2347 227° Southwest 462 532 43,000  Level Albuquerque Center
Sat 10:10:29 PM 31.4772 -102.3369 225° Southwest 463 533 43,000  Level Albuquerque Center
Sat 10:11:30 PM 31.3878 -102.4458 226° Southwest 461 531 43,000  Level Albuquerque Center
Sat 10:12:31 PM 31.2828 -102.5775 227° Southwest 462 532 43,000  Level Albuquerque Center
Sat 10:13:32 PM 31.1925 -102.6853 226° Southwest 466 536 43,000  Level Albuquerque Center
Sat 10:14:33 PM 31.1022 -102.7922 225° Southwest 465 535 43,000  Level Albuquerque Center
Sat 10:15:34 PM 31.0119 -102.9006 226° Southwest 465 535 43,000  Level Albuquerque Center
Sat 10:16:35 PM 30.9197 -103.0061 224° Southwest 467 537 43,000  Level Albuquerque Center
Sat 10:17:36 PM 30.8164 -103.0997 218° Southwest 468 539 43,000  Level Albuquerque Center
Sat 10:18:37 PM 30.7161 -103.1947 219° Southwest 467 537 43,000  Level Albuquerque Center
Sat 10:19:39 PM 30.6136 -103.2900 219° Southwest 469 540 43,000  Level Albuquerque Center
Sat 10:20:40 PM 30.5114 -103.3847 219° Southwest 470 541 43,000  Level Albuquerque Center
Sat 10:21:41 PM 30.3881 -103.4978 218° Southwest 471 542 43,000  Level Albuquerque Center
Sat 10:22:42 PM 30.2869 -103.5933 219° Southwest 471 542 43,000  Level Albuquerque Center
Sat 10:23:43 PM 30.1917 -103.6794 218° Southwest 473 544 43,000  Level Albuquerque Center
Sat 10:24:44 PM 30.0881 -103.7736 218° Southwest 472 543 43,000  Level Albuquerque Center
Sat 10:25:45 PM 29.9856 -103.8686 219° Southwest 472 543 43,000  Level Albuquerque Center
Sat 10:26:46 PM 29.8819 -103.9625 218° Southwest 472 543 43,000  Level Albuquerque Center
Sat 10:27:47 PM 29.7778 -104.0553 218° Southwest 473 544 43,000  Level Albuquerque Center
Sat 10:28:48 PM 29.6736 -104.1492 218° Southwest 473 544 43,000  Level Albuquerque Center
Sat 10:29:49 PM 29.5714 -104.2431 219° Southwest 471 542 43,000  Level Albuquerque Center
Sat 10:31:00 PM 29.4507 -104.3327 221° Southwest  Level FlightAware Approximate
Sat 10:38:00 PM 28.7822 -104.9287 218° Southwest  Level FlightAware Approximate
Sat 10:39:00 PM 28.6860 -105.0126 217° Southwest  Level FlightAware Approximate
Sat 10:40:00 PM 28.5897 -105.0963 217° Southwest  Level FlightAware Approximate
Sat 10:41:00 PM 28.4935 -105.1799 217° Southwest  Level FlightAware Approximate
Sat 10:42:00 PM 28.3971 -105.2633 217° Southwest  Level FlightAware Approximate
Sat 10:43:00 PM 28.3007 -105.3465 217° Southwest  Level FlightAware Approximate
Sat 10:44:00 PM 28.2043 -105.4296 217° Southwest  Level FlightAware Approximate
Sat 10:45:00 PM 28.0983 -105.4959 209° Southwest  Level FlightAware Approximate
Sat 10:46:00 PM 27.9919 -105.5613 208° Southwest  Level FlightAware Approximate
Sat 10:47:00 PM 27.8854 -105.6266 208° Southwest  Level FlightAware Approximate
Sat 10:48:00 PM 27.7789 -105.6917 208° Southwest  Level FlightAware Approximate
Sat 10:49:00 PM 27.6723 -105.7567 208° Southwest  Level FlightAware Approximate
Sat 10:50:00 PM 27.5658 -105.8216 208° Southwest  Level FlightAware Approximate
Sat 10:51:00 PM 27.4592 -105.8863 208° Southwest  Level FlightAware Approximate
Sat 10:52:00 PM 27.3526 -105.9509 208° Southwest  Level FlightAware Approximate
Sat 10:53:00 PM 27.2459 -106.0154 208° Southwest  Level FlightAware Approximate
Sat 10:54:00 PM 27.1392 -106.0798 208° Southwest  Level FlightAware Approximate
Sat 10:55:00 PM 27.0327 -106.1445 208° Southwest  Level FlightAware Approximate
Sat 10:56:00 PM 26.9263 -106.2092 208° Southwest  Level FlightAware Approximate
Sat 10:57:00 PM 26.8198 -106.2737 208° Southwest  Level FlightAware Approximate
Sat 10:58:00 PM 26.7132 -106.3382 208° Southwest  Level FlightAware Approximate
Sat 10:59:00 PM 26.6066 -106.4025 208° Southwest  Level FlightAware Approximate
Sat 11:00:00 PM 26.5000 -106.4666 208° Southwest  Level FlightAware Approximate
Sat 11:01:00 PM 26.3910 -106.5254 206° Southwest  Level FlightAware Approximate
Sat 11:02:00 PM 26.2820 -106.5842 209° Southwest  Level FlightAware Approximate
Sat 11:03:00 PM 26.1760 -106.6495 209° Southwest  Level FlightAware Approximate
Sat 11:04:00 PM 26.0700 -106.7146 209° Southwest  Level FlightAware Approximate
Sat 11:05:00 PM 25.9625 -106.7767 207° Southwest  Level FlightAware Approximate
Sat 11:06:00 PM 25.8550 -106.8385 207° Southwest  Level FlightAware Approximate
Sat 11:07:00 PM 25.7474 -106.9002 207° Southwest  Level FlightAware Approximate
Sat 11:08:00 PM 25.6398 -106.9619 207° Southwest  Level FlightAware Approximate
Sat 11:09:00 PM 25.5322 -107.0234 207° Southwest  Level FlightAware Approximate
Sat 11:10:00 PM 25.4245 -107.0847 207° Southwest  Level FlightAware Approximate
Sat 11:11:00 PM 25.3169 -107.1460 207° Southwest  Level FlightAware Approximate
Sat 11:12:00 PM 25.2092 -107.2072 207° Southwest  Level FlightAware Approximate
Sat 11:13:00 PM 25.1014 -107.2683 207° Southwest  Level FlightAware Approximate
Sat 11:14:00 PM 24.9937 -107.3292 207° Southwest  Level FlightAware Approximate
Sat 11:15:00 PM 24.8859 -107.3901 207° Southwest  Level FlightAware Approximate
Sat 11:16:00 PM 24.7781 -107.4508 207° Southwest  Level FlightAware Approximate
Sat 11:17:00 PM 24.7007 -107.5489 237° Southwest  Level FlightAware Approximate
Sat 11:18:00 PM 24.6320 -107.6585 232° Southwest  Level FlightAware Approximate
Sat 11:19:00 PM 24.5566 -107.7626 229° Southwest  Level FlightAware Approximate
Sat 11:20:00 PM 24.4766 -107.8626 229° Southwest  Level FlightAware Approximate
Sat 11:21:00 PM 24.4016 -107.9667 235° Southwest  Level FlightAware Approximate
Sat 11:22:00 PM 24.3322 -108.0756 235° Southwest  Level FlightAware Approximate
Sat 11:23:00 PM 24.2578 -108.1804 231° Southwest  Level FlightAware Approximate
Sat 11:24:00 PM 24.1819 -108.2838 231° Southwest  Level FlightAware Approximate
Sat 11:25:00 PM 24.1012 -108.3822 222° Southwest  Level FlightAware Approximate
Sat 11:26:00 PM 24.0336 -108.4913 229° Southwest  Level FlightAware Approximate
Sat 11:27:00 PM 23.9556 -108.5926 231° Southwest  Level FlightAware Approximate
Sat 11:28:00 PM 23.8794 -108.6955 232° Southwest  Level FlightAware Approximate
Sat 11:29:00 PM 23.8049 -108.7999 232° Southwest  Level FlightAware Approximate
Sat 11:30:00 PM 23.7304 -108.9041 232° Southwest  Level FlightAware Approximate
Sat 11:31:00 PM 23.6552 -109.0078 232° Southwest  Level FlightAware Approximate
Sat 11:32:00 PM 23.5799 -109.1113 232° Southwest  Level FlightAware Approximate
Sat 11:33:00 PM 23.5046 -109.2147 232° Southwest  Level FlightAware Approximate
Sat 11:34:00 PM 23.4278 -109.3167 230° Southwest  Level FlightAware Approximate
Sat 11:35:00 PM 23.3495 -109.4173 232° Southwest  Level FlightAware Approximate
Sat 11:36:00 PM 23.2744 -109.5207 232° Southwest  Level FlightAware Approximate
Sat 11:37:00 PM 23.1994 -109.6242 232° Southwest  Level FlightAware Approximate
Sat 11:38:00 PM 23.1235 -109.7265 223° Southwest  Level FlightAware Approximate
Sat 11:39:00 PM 23.0366 -109.8179 231° Southwest  Level FlightAware Approximate
Sat 11:40:00 PM 22.9535 -109.9131 223° Southwest  Level FlightAware Approximate
Sat 11:41:00 PM 22.9333 -109.9333 223° Southwest  Level FlightAware Approximate
Sat 11:42:00 PM 22.9485 -109.9387 223° Southwest  Level Estimated
Sat 11:43:00 PM 22.9485 -109.9387 223° Southwest  Level Estimated
Sat 11:44:00 PM 22.9485 -109.9387 223° Southwest  Level Estimated
Sat 11:45:00 PM 22.9485 -109.9387 223° Southwest  Level Estimated
Sat 11:46:00 PM 22.9485 -109.9387 223° Southwest  Level Estimated
Sat 11:47:00 PM 22.9485 -109.9387 223° Southwest  Level Estimated
Sat 11:48:00 PM 22.9485 -109.9387 223° Southwest  Level Estimated
Sat 11:49:00 PM 22.9485 -109.9387 223° Southwest  Level Estimated
Sat 11:50:00 PM 22.9485 -109.9387 223° Southwest  Level Estimated
Sat 11:51:00 PM 22.9485 -109.9387 223° Southwest  Level Estimated
Sat 11:52:00 PM 22.9485 -109.9387 223° Southwest  Level Estimated
Sat 11:53:00 PM 22.9485 -109.9387 223° Southwest  Level Estimated
Sat 11:54:00 PM 22.9485 -109.9387 223° Southwest  Level Estimated
Sat 11:55:00 PM 22.9485 -109.9387 223° Southwest  Level Estimated
Sat 11:56:00 PM 22.9485 -109.9387 223° Southwest  Level Estimated
Sat 11:57:00 PM 22.9485 -109.9387 223° Southwest  Level Estimated

Login

Don't have an account? Register now (free) for customized features, flight alerts, and more!